createdAt,value
2018-05-24T00:00:07.319Z,17.03
2018-05-24T00:01:07.301Z,17.12
2018-05-24T00:02:07.054Z,17.07
2018-05-24T00:03:07.575Z,17.03
2018-05-24T00:04:07.574Z,16.98
2018-05-24T00:05:07.546Z,16.98
2018-05-24T00:06:07.028Z,17.01
2018-05-24T00:07:07.554Z,16.98
2018-05-24T00:08:07.521Z,16.89
2018-05-24T00:09:07.544Z,16.89
2018-05-24T00:10:07.260Z,16.93
2018-05-24T00:11:07.278Z,16.81
2018-05-24T00:12:07.499Z,16.83
2018-05-24T00:13:07.527Z,16.81
2018-05-24T00:14:07.510Z,16.76
2018-05-24T00:15:07.258Z,16.75
2018-05-24T00:16:07.479Z,16.81
2018-05-24T00:17:07.235Z,16.83
2018-05-24T00:18:07.505Z,16.81
2018-05-24T00:19:07.241Z,16.7
2018-05-24T00:20:07.254Z,16.78
2018-05-24T00:21:07.209Z,16.76
2018-05-24T00:22:07.209Z,16.7
2018-05-24T00:23:07.465Z,16.71
2018-05-24T00:24:07.478Z,16.68
2018-05-24T00:25:07.445Z,16.7
2018-05-24T00:26:07.209Z,16.71
2018-05-24T00:27:07.181Z,16.7
2018-05-24T00:28:07.471Z,16.78
2018-05-24T00:29:07.439Z,16.81
2018-05-24T00:30:07.452Z,16.75
2018-05-24T00:31:07.434Z,16.75
2018-05-24T00:32:07.191Z,16.68
2018-05-24T00:33:07.156Z,16.71
2018-05-24T00:34:07.155Z,16.67
2018-05-24T00:35:07.168Z,16.68
2018-05-24T00:36:07.433Z,16.68
2018-05-24T00:37:07.140Z,16.68
2018-05-24T00:38:07.404Z,16.68
2018-05-24T00:39:07.586Z,16.63
2018-05-24T00:40:07.567Z,16.67
2018-05-24T00:41:07.373Z,16.64
2018-05-24T00:42:07.141Z,16.58
2018-05-24T00:43:07.357Z,16.56
2018-05-24T00:44:07.132Z,16.52
2018-05-24T00:45:06.847Z,16.52
2018-05-24T00:46:07.117Z,16.53
2018-05-24T00:47:07.337Z,16.48
2018-05-24T00:48:07.370Z,16.39
2018-05-24T00:49:07.355Z,16.43
2018-05-24T00:50:07.097Z,16.43
2018-05-24T00:51:07.073Z,16.41
2018-05-24T00:52:07.308Z,16.39
2018-05-24T00:53:07.336Z,16.35
2018-05-24T00:54:07.075Z,16.33
2018-05-24T00:55:07.074Z,16.25
2018-05-24T00:56:07.044Z,16.28
2018-05-24T00:57:07.063Z,16.21
2018-05-24T00:58:07.309Z,16.2
2018-05-24T00:59:07.026Z,16.11
2018-05-24T01:00:07.055Z,16.15
2018-05-24T01:01:06.764Z,16.14
2018-05-24T01:02:07.291Z,16.12
2018-05-24T01:03:07.268Z,16.12
2018-05-24T01:04:07.042Z,16.14
2018-05-24T01:05:06.780Z,16.08
2018-05-24T01:06:07.011Z,16.08
2018-05-24T01:07:06.991Z,16.02
2018-05-24T01:08:07.241Z,15.94
2018-05-24T01:09:07.007Z,15.96
2018-05-24T01:10:07.256Z,15.93
2018-05-24T01:11:07.232Z,16.05
2018-05-24T01:12:06.999Z,16.02
2018-05-24T01:13:07.221Z,15.96
2018-05-24T01:14:07.238Z,16.05
2018-05-24T01:15:07.208Z,15.97
2018-05-24T01:16:06.972Z,15.9
2018-05-24T01:17:06.943Z,15.92
2018-05-24T01:18:07.209Z,15.84
2018-05-24T01:19:06.933Z,15.83
2018-05-24T01:20:06.956Z,15.78
2018-05-24T01:21:06.943Z,15.74
2018-05-24T01:22:07.187Z,15.75
2018-05-24T01:23:06.656Z,15.75
2018-05-24T01:24:06.940Z,15.65
2018-05-24T01:25:06.649Z,15.59
2018-05-24T01:26:07.182Z,15.64
2018-05-24T01:27:06.886Z,15.64
2018-05-24T01:28:06.910Z,15.5
2018-05-24T01:29:06.880Z,15.6
2018-05-24T01:30:06.907Z,15.53
2018-05-24T01:31:06.865Z,15.54
2018-05-24T01:32:07.160Z,15.53
2018-05-24T01:33:07.107Z,15.44
2018-05-24T01:34:07.126Z,15.43
2018-05-24T01:35:06.849Z,15.44
2018-05-24T01:36:06.615Z,15.44
2018-05-24T01:37:06.863Z,15.47
2018-05-24T01:38:06.853Z,15.39
2018-05-24T01:39:07.079Z,15.39
2018-05-24T01:40:06.819Z,15.44
2018-05-24T01:41:07.095Z,15.43
2018-05-24T01:42:06.827Z,15.5
2018-05-24T01:43:06.832Z,15.38
2018-05-24T01:44:06.799Z,15.35
2018-05-24T01:45:06.818Z,15.32
2018-05-24T01:46:07.046Z,15.27
2018-05-24T01:47:06.820Z,15.28
2018-05-24T01:48:06.775Z,15.21
2018-05-24T01:49:06.804Z,15.23
2018-05-24T01:50:07.051Z,15.19
2018-05-24T01:51:07.023Z,15.16
2018-05-24T01:52:07.046Z,15.23
2018-05-24T01:53:07.044Z,15.2
2018-05-24T01:54:07.037Z,15.16
2018-05-24T01:55:06.744Z,15.23
2018-05-24T01:56:06.989Z,15.2
2018-05-24T01:57:06.495Z,15.23
2018-05-24T01:58:07.005Z,15.2
2018-05-24T01:59:07.003Z,15.2
2018-05-24T02:00:06.719Z,15.11
2018-05-24T02:01:06.738Z,15.2
2018-05-24T02:02:06.954Z,15.1
2018-05-24T02:03:06.981Z,15.11
2018-05-24T02:04:06.698Z,15.11
2018-05-24T02:05:06.719Z,15.1
2018-05-24T02:06:06.696Z,15.06
2018-05-24T02:07:06.444Z,15.07
2018-05-24T02:08:06.428Z,15.09
2018-05-24T02:09:06.667Z,15.06
2018-05-24T02:10:06.930Z,15.03
2018-05-24T02:11:06.692Z,15.03
2018-05-24T02:12:06.933Z,15.02
2018-05-24T02:13:06.646Z,15.01
2018-05-24T02:14:06.643Z,15.02
2018-05-24T02:15:06.660Z,14.99
2018-05-24T02:16:06.885Z,14.94
2018-05-24T02:17:06.904Z,14.95
2018-05-24T02:18:06.610Z,14.92
2018-05-24T02:19:06.639Z,14.95
2018-05-24T02:20:06.854Z,14.94
2018-05-24T02:21:06.627Z,14.96
2018-05-24T02:22:06.867Z,14.98
2018-05-24T02:23:06.613Z,14.81
2018-05-24T02:24:06.326Z,14.94
2018-05-24T02:25:06.849Z,14.98
2018-05-24T02:26:06.575Z,14.94
2018-05-24T02:27:06.594Z,14.91
2018-05-24T02:28:06.593Z,14.92
2018-05-24T02:29:07.070Z,14.98
2018-05-24T02:30:06.557Z,14.94
2018-05-24T02:31:06.548Z,14.91
2018-05-24T02:32:06.563Z,14.88
2018-05-24T02:33:06.539Z,14.88
2018-05-24T02:34:06.562Z,14.92
2018-05-24T02:35:06.788Z,14.91
2018-05-24T02:36:07.827Z,14.88
2018-05-24T02:37:06.251Z,14.92
2018-05-24T02:38:06.794Z,14.95
2018-05-24T02:39:06.753Z,14.96
2018-05-24T02:40:06.816Z,14.94
2018-05-24T02:41:06.232Z,14.84
2018-05-24T02:42:06.497Z,14.94
2018-05-24T02:43:06.246Z,14.92
2018-05-24T02:44:06.503Z,14.83
2018-05-24T02:45:06.719Z,14.84
2018-05-24T02:46:06.221Z,14.81
2018-05-24T02:47:06.456Z,14.91
2018-05-24T02:48:06.735Z,14.83
2018-05-24T02:49:06.693Z,14.91
2018-05-24T02:50:06.731Z,14.88
2018-05-24T02:51:06.682Z,14.81
2018-05-24T02:52:06.453Z,14.88
2018-05-24T02:53:06.691Z,14.89
2018-05-24T02:54:06.422Z,14.89
2018-05-24T02:55:06.436Z,14.83
2018-05-24T02:56:06.408Z,14.94
2018-05-24T02:57:06.903Z,14.88
2018-05-24T02:58:06.654Z,14.84
2018-05-24T02:59:06.665Z,14.81
2018-05-24T03:00:06.669Z,14.88
2018-05-24T03:01:06.119Z,14.89
2018-05-24T03:02:06.375Z,14.89
2018-05-24T03:03:06.617Z,14.83
2018-05-24T03:04:06.669Z,14.83
2018-05-24T03:05:06.109Z,14.83
2018-05-24T03:06:06.648Z,14.88
2018-05-24T03:07:06.103Z,14.84
2018-05-24T03:08:06.582Z,14.86
2018-05-24T03:09:06.609Z,14.89
2018-05-24T03:10:06.352Z,14.91
2018-05-24T03:11:06.599Z,14.86
2018-05-24T03:12:06.049Z,14.86
2018-05-24T03:13:06.304Z,14.81
2018-05-24T03:14:06.302Z,14.88
2018-05-24T03:15:06.319Z,14.81
2018-05-24T03:16:06.312Z,14.84
2018-05-24T03:17:06.531Z,14.92
2018-05-24T03:18:06.023Z,14.98
2018-05-24T03:19:06.262Z,14.94
2018-05-24T03:20:06.552Z,14.94
2018-05-24T03:21:06.254Z,14.95
2018-05-24T03:22:06.533Z,14.92
2018-05-24T03:23:06.240Z,14.91
2018-05-24T03:24:06.527Z,15.03
2018-05-24T03:25:06.231Z,15.13
2018-05-24T03:26:05.986Z,15.06
2018-05-24T03:27:06.216Z,15.14
2018-05-24T03:28:06.233Z,15.21
2018-05-24T03:29:06.489Z,15.23
2018-05-24T03:30:06.238Z,15.25
2018-05-24T03:31:06.462Z,15.34
2018-05-24T03:32:06.223Z,15.31
2018-05-24T03:33:06.284Z,15.41
2018-05-24T03:34:06.193Z,15.38
2018-05-24T03:35:06.172Z,15.43
2018-05-24T03:36:06.197Z,15.51
2018-05-24T03:37:06.171Z,15.47
2018-05-24T03:38:06.186Z,15.67
2018-05-24T03:39:06.155Z,15.78
2018-05-24T03:40:06.435Z,16.07
2018-05-24T03:41:06.146Z,16.05
2018-05-24T03:42:06.151Z,16.24
2018-05-24T03:43:06.390Z,16.49
2018-05-24T03:44:06.416Z,16.66
2018-05-24T03:45:06.149Z,16.89
2018-05-24T03:46:06.133Z,17
2018-05-24T03:47:06.111Z,17.16
2018-05-24T03:48:06.367Z,17.19
2018-05-24T03:49:06.395Z,17.26
2018-05-24T03:50:06.121Z,17.41
2018-05-24T03:51:06.137Z,17.55
2018-05-24T03:52:06.606Z,17.62
2018-05-24T03:53:06.114Z,17.7
2018-05-24T03:54:06.093Z,17.84
2018-05-24T03:55:06.384Z,17.84
2018-05-24T03:56:06.344Z,17.92
2018-05-24T03:57:06.102Z,18.14
2018-05-24T03:58:06.347Z,18.3
2018-05-24T03:59:06.579Z,18.52
2018-05-24T04:00:05.853Z,18.69
2018-05-24T04:01:06.091Z,18.95
2018-05-24T04:02:06.086Z,19.08
2018-05-24T04:03:06.063Z,19.33
2018-05-24T04:04:06.317Z,19.43
2018-05-24T04:05:06.351Z,19.59
2018-05-24T04:06:06.074Z,19.73
2018-05-24T04:07:06.177Z,19.88
2018-05-24T04:08:06.052Z,20.03
2018-05-24T04:09:05.816Z,20.05
2018-05-24T04:10:06.049Z,20.17
2018-05-24T04:11:06.336Z,20.16
2018-05-24T04:12:06.539Z,20.08
2018-05-24T04:13:06.332Z,20.2
2018-05-24T04:14:06.063Z,20.2
2018-05-24T04:15:06.330Z,20.31
2018-05-24T04:16:06.045Z,20.35
2018-05-24T04:17:06.045Z,20.21
2018-05-24T04:18:06.049Z,20.23
2018-05-24T04:19:06.327Z,20.17
2018-05-24T04:20:06.326Z,20.28
2018-05-24T04:21:06.056Z,20.29
2018-05-24T04:22:06.306Z,20.26
2018-05-24T04:23:06.332Z,20.36
2018-05-24T04:24:06.286Z,20.31
2018-05-24T04:25:06.316Z,20.42
2018-05-24T04:26:05.779Z,20.43
2018-05-24T04:27:06.537Z,20.48
2018-05-24T04:28:06.284Z,20.38
2018-05-24T04:29:05.802Z,20.35
2018-05-24T04:30:06.551Z,20.2
2018-05-24T04:31:05.803Z,20.23
2018-05-24T04:32:06.280Z,20.13
2018-05-24T04:33:06.499Z,20.05
2018-05-24T04:34:06.296Z,19.94
2018-05-24T04:35:06.310Z,19.84
2018-05-24T04:36:05.834Z,19.74
2018-05-24T04:37:06.285Z,19.65
2018-05-24T04:38:06.033Z,19.56
2018-05-24T04:39:06.022Z,19.48
2018-05-24T04:40:06.046Z,19.43
2018-05-24T04:41:06.033Z,19.41
2018-05-24T04:42:06.300Z,19.19
2018-05-24T04:43:06.017Z,19.11
2018-05-24T04:44:06.302Z,19.04
2018-05-24T04:45:06.275Z,19.04
2018-05-24T04:46:06.026Z,18.99
2018-05-24T04:47:06.267Z,19.1
2018-05-24T04:48:06.302Z,19.13
2018-05-24T04:49:06.003Z,19.32
2018-05-24T04:50:06.276Z,19.32
2018-05-24T04:51:06.025Z,19.41
2018-05-24T04:52:06.290Z,19.56
2018-05-24T04:53:05.747Z,19.59
2018-05-24T04:54:06.009Z,19.76
2018-05-24T04:55:05.996Z,19.77
2018-05-24T04:56:05.757Z,19.74
2018-05-24T04:57:05.735Z,19.8
2018-05-24T04:58:06.011Z,19.77
2018-05-24T04:59:05.728Z,19.69
2018-05-24T05:00:05.751Z,19.77
2018-05-24T05:01:05.976Z,19.63
2018-05-24T05:02:06.258Z,19.63
2018-05-24T05:03:05.986Z,19.59
2018-05-24T05:04:05.742Z,19.51
2018-05-24T05:05:06.273Z,19.65
2018-05-24T05:06:05.985Z,19.55
2018-05-24T05:07:05.968Z,19.73
2018-05-24T05:08:06.220Z,19.87
2018-05-24T05:09:05.989Z,20.06
2018-05-24T05:10:06.236Z,20.23
2018-05-24T05:11:06.249Z,20.38
2018-05-24T05:12:05.959Z,20.41
2018-05-24T05:13:06.241Z,20.54
2018-05-24T05:14:06.035Z,20.74
2018-05-24T05:15:05.956Z,20.92
2018-05-24T05:16:05.996Z,21.13
2018-05-24T05:17:05.956Z,21.31
2018-05-24T05:18:05.722Z,21.37
2018-05-24T05:19:06.214Z,21.56
2018-05-24T05:20:05.985Z,21.61
2018-05-24T05:21:05.985Z,21.8
2018-05-24T05:22:05.724Z,21.91
2018-05-24T05:23:06.047Z,22.05
2018-05-24T05:24:06.216Z,22.21
2018-05-24T05:25:06.050Z,22.43
2018-05-24T05:26:05.978Z,22.6
2018-05-24T05:27:05.988Z,22.7
2018-05-24T05:28:06.217Z,22.9
2018-05-24T05:29:05.985Z,22.95
2018-05-24T05:30:05.963Z,22.91
2018-05-24T05:31:06.001Z,23.05
2018-05-24T05:32:06.036Z,23.19
2018-05-24T05:33:06.257Z,23.42
2018-05-24T05:34:06.248Z,23.55
2018-05-24T05:35:06.016Z,23.72
2018-05-24T05:36:05.984Z,23.98
2018-05-24T05:37:05.985Z,24.09
2018-05-24T05:38:06.310Z,24.13
2018-05-24T05:39:06.277Z,24.31
2018-05-24T05:40:06.260Z,24.53
2018-05-24T05:41:06.022Z,24.64
2018-05-24T05:42:06.274Z,24.83
2018-05-24T05:43:06.301Z,24.98
2018-05-24T05:44:06.273Z,25.08
2018-05-24T05:45:06.305Z,25.17
2018-05-24T05:46:06.281Z,25.27
2018-05-24T05:47:06.063Z,25.2
2018-05-24T05:48:06.296Z,25.18
2018-05-24T05:49:06.065Z,25.27
2018-05-24T05:50:06.055Z,25.14
2018-05-24T05:51:05.822Z,25.15
2018-05-24T05:52:06.462Z,25.15
2018-05-24T05:53:06.324Z,25.27
2018-05-24T05:54:06.334Z,25.28
2018-05-24T05:55:06.358Z,25.47
2018-05-24T05:56:06.386Z,25.43
2018-05-24T05:57:06.346Z,25.32
2018-05-24T05:58:06.360Z,25.23
2018-05-24T05:59:06.349Z,25.23
2018-05-24T06:00:06.135Z,25.36
2018-05-24T06:01:06.113Z,25.35
2018-05-24T06:02:06.143Z,25.35
2018-05-24T06:03:06.119Z,25.33
2018-05-24T06:04:06.409Z,25.42
2018-05-24T06:05:06.400Z,25.36
2018-05-24T06:06:06.420Z,25.47
2018-05-24T06:07:06.438Z,25.42
2018-05-24T06:08:05.895Z,25.47
2018-05-24T06:09:05.907Z,25.62
2018-05-24T06:10:06.184Z,25.77
2018-05-24T06:11:06.220Z,25.94
2018-05-24T06:12:06.551Z,26.26
2018-05-24T06:13:06.440Z,26.4
2018-05-24T06:14:06.462Z,26.52
2018-05-24T06:15:06.203Z,26.6
2018-05-24T06:16:06.231Z,26.82
2018-05-24T06:17:05.959Z,27.04
2018-05-24T06:18:06.226Z,27.04
2018-05-24T06:19:06.523Z,27.07
2018-05-24T06:20:06.232Z,27.03
2018-05-24T06:21:06.012Z,27.03
2018-05-24T06:22:06.522Z,27
2018-05-24T06:23:06.569Z,26.92
2018-05-24T06:24:06.530Z,27.03
2018-05-24T06:25:06.025Z,27.02
2018-05-24T06:26:06.571Z,27.13
2018-05-24T06:27:06.578Z,27.31
2018-05-24T06:28:06.355Z,27.37
2018-05-24T06:29:06.371Z,27.32
2018-05-24T06:30:06.588Z,27.4
2018-05-24T06:31:06.156Z,27.5
2018-05-24T06:32:06.594Z,27.46
2018-05-24T06:33:06.372Z,27.28
2018-05-24T06:35:06.366Z,27.29
2018-05-24T06:36:06.666Z,27.62
2018-05-24T06:37:06.390Z,28.06
2018-05-24T06:38:06.424Z,28.33
2018-05-24T06:39:06.674Z,28.37
2018-05-24T06:40:06.705Z,28.62
2018-05-24T06:41:06.428Z,28.67
2018-05-24T06:42:06.453Z,28.62
2018-05-24T06:43:06.464Z,28.64
2018-05-24T06:44:06.514Z,28.55
2018-05-24T06:45:06.767Z,28.52
2018-05-24T06:46:06.746Z,28.56
2018-05-24T06:47:06.766Z,28.77
2018-05-24T06:48:06.505Z,28.85
2018-05-24T06:49:06.288Z,28.81
2018-05-24T06:50:06.535Z,28.78
2018-05-24T06:51:06.310Z,28.88
2018-05-24T06:52:06.559Z,28.81
2018-05-24T06:53:06.591Z,28.92
2018-05-24T06:54:06.822Z,28.93
2018-05-24T06:55:06.343Z,29
2018-05-24T06:56:06.600Z,29.05
2018-05-24T06:57:06.932Z,28.98
2018-05-24T06:58:06.871Z,29.14
2018-05-24T06:59:06.643Z,29.28
2018-05-24T07:00:07.120Z,29.37
2018-05-24T07:01:06.933Z,29.48
2018-05-24T07:02:06.918Z,29.63
2018-05-24T07:03:06.950Z,29.76
2018-05-24T07:04:06.676Z,29.95
2018-05-24T07:05:06.458Z,30.26
2018-05-24T07:06:07.131Z,30.46
2018-05-24T07:07:06.953Z,30.51
2018-05-24T07:08:06.732Z,30.51
2018-05-24T07:09:07.021Z,30.38
2018-05-24T07:10:06.741Z,30.17
2018-05-24T07:11:07.375Z,29.9
2018-05-24T07:12:07.063Z,29.7
2018-05-24T07:13:06.803Z,29.55
2018-05-24T07:14:06.820Z,29.33
2018-05-24T07:15:06.807Z,29.19
2018-05-24T07:16:07.077Z,29.08
2018-05-24T07:17:07.084Z,28.98
2018-05-24T07:18:06.852Z,28.89
2018-05-24T07:19:06.836Z,28.8
2018-05-24T07:20:07.145Z,28.83
2018-05-24T07:21:06.858Z,29.02
2018-05-24T07:22:06.902Z,29.05
2018-05-24T07:23:07.140Z,29.31
2018-05-24T07:24:07.162Z,29.43
2018-05-24T07:25:07.174Z,29.57
2018-05-24T07:26:06.924Z,29.83
2018-05-24T07:27:06.991Z,30.05
2018-05-24T07:28:06.933Z,30.1
2018-05-24T07:29:07.219Z,30.1
2018-05-24T07:30:06.973Z,30.1
2018-05-24T07:31:06.976Z,30.11
2018-05-24T07:32:07.226Z,30.08
2018-05-24T07:33:06.979Z,30.15
2018-05-24T07:34:06.750Z,30.04
2018-05-24T07:35:07.076Z,30.22
2018-05-24T07:36:07.334Z,30.37
2018-05-24T07:37:07.270Z,30.54
2018-05-24T07:38:07.051Z,30.53
2018-05-24T07:39:07.357Z,30.45
2018-05-24T07:40:07.330Z,30.49
2018-05-24T07:41:07.118Z,30.34
2018-05-24T07:42:07.430Z,30.32
2018-05-24T07:43:07.209Z,30.26
2018-05-24T07:44:07.185Z,30.26
2018-05-24T07:45:07.894Z,30.31
2018-05-24T07:46:07.468Z,30.27
2018-05-24T07:47:07.507Z,30.34
2018-05-24T07:48:07.515Z,30.45
2018-05-24T07:49:06.952Z,30.46
2018-05-24T07:50:07.529Z,30.49
2018-05-24T07:51:07.279Z,30.49
2018-05-24T07:52:07.304Z,30.64
2018-05-24T07:53:07.300Z,30.82
2018-05-24T07:54:07.614Z,30.75
2018-05-24T07:55:07.311Z,30.76
2018-05-24T07:56:07.354Z,30.76
2018-05-24T07:57:07.288Z,30.77
2018-05-24T07:58:08.006Z,30.77
2018-05-24T07:59:07.622Z,30.82
2018-05-24T08:00:07.362Z,30.88
2018-05-24T08:01:07.637Z,30.95
2018-05-24T08:02:07.417Z,30.86
2018-05-24T08:03:07.650Z,30.6
2018-05-24T08:04:07.768Z,30.47
2018-05-24T08:05:07.844Z,30.45
2018-05-24T08:06:07.660Z,30.45
2018-05-24T08:07:07.728Z,30.46
2018-05-24T08:08:07.711Z,30.35
2018-05-24T08:09:07.663Z,30.32
2018-05-24T08:10:07.688Z,30.34
2018-05-24T08:11:07.768Z,30.42
2018-05-24T08:12:07.453Z,30.35
2018-05-24T08:13:07.730Z,30.34
2018-05-24T08:14:07.725Z,30.35
2018-05-24T08:15:07.479Z,30.38
2018-05-24T08:16:07.472Z,30.45
2018-05-24T08:17:07.502Z,30.47
2018-05-24T08:18:07.527Z,30.49
2018-05-24T08:19:07.758Z,30.51
2018-05-24T08:20:07.788Z,30.43
2018-05-24T08:21:07.556Z,30.22
2018-05-24T08:22:07.849Z,30.07
2018-05-24T08:23:07.837Z,30.13
2018-05-24T08:24:07.841Z,30.04
2018-05-24T08:25:07.566Z,30.26
2018-05-24T08:26:07.607Z,30.31
2018-05-24T08:27:07.857Z,30.24
2018-05-24T08:28:07.619Z,30.13
2018-05-24T08:29:07.872Z,30.16
2018-05-24T08:30:07.950Z,30.01
2018-05-24T08:31:07.975Z,29.97
2018-05-24T08:32:07.930Z,29.79
2018-05-24T08:33:07.917Z,29.7
2018-05-24T08:34:07.680Z,29.7
2018-05-24T08:35:08.143Z,29.68
2018-05-24T08:36:07.727Z,29.61
2018-05-24T08:37:08.035Z,29.46
2018-05-24T08:38:07.735Z,29.19
2018-05-24T08:39:07.766Z,29.04
2018-05-24T08:40:07.778Z,28.95
2018-05-24T08:41:07.754Z,28.92
2018-05-24T08:42:08.049Z,28.85
2018-05-24T08:43:07.789Z,28.85
2018-05-24T08:44:07.815Z,28.92
2018-05-24T08:45:07.803Z,28.89
2018-05-24T08:46:08.099Z,28.93
2018-05-24T08:47:08.362Z,28.64
2018-05-24T08:48:08.159Z,28.36
2018-05-24T08:49:08.146Z,28.09
2018-05-24T08:50:07.899Z,28.06
2018-05-24T08:51:08.172Z,27.84
2018-05-24T08:52:07.930Z,27.82
2018-05-24T08:53:08.181Z,27.66
2018-05-24T08:54:08.149Z,27.44
2018-05-24T08:55:08.400Z,27.32
2018-05-24T08:56:08.188Z,27.13
2018-05-24T08:57:07.952Z,27.12
2018-05-24T08:58:08.189Z,26.97
2018-05-24T08:59:08.035Z,27
2018-05-24T09:00:07.965Z,27.04
2018-05-24T09:01:08.260Z,26.97
2018-05-24T09:02:08.221Z,26.95
2018-05-24T09:03:08.316Z,26.89
2018-05-24T09:04:08.252Z,26.87
2018-05-24T09:05:08.026Z,26.81
2018-05-24T09:06:07.998Z,26.73
2018-05-24T09:07:08.283Z,26.69
2018-05-24T09:08:08.277Z,26.57
2018-05-24T09:09:08.344Z,26.57
2018-05-24T09:10:08.028Z,26.55
2018-05-24T09:11:08.303Z,26.5
2018-05-24T09:12:07.781Z,26.44
2018-05-24T09:13:08.366Z,26.3
2018-05-24T09:14:08.296Z,26.1
2018-05-24T09:15:08.071Z,26.07
2018-05-24T09:16:08.315Z,25.95
2018-05-24T09:17:08.080Z,25.94
2018-05-24T09:18:08.318Z,25.77
2018-05-24T09:19:08.074Z,25.69
2018-05-24T09:20:08.623Z,25.62
2018-05-24T09:21:08.386Z,25.62
2018-05-24T09:22:08.365Z,25.64
2018-05-24T09:23:08.344Z,25.55
2018-05-24T09:24:08.111Z,25.5
2018-05-24T09:26:08.371Z,25.39
2018-05-24T09:27:08.090Z,25.33
2018-05-24T09:29:08.405Z,25.42
2018-05-24T09:30:08.369Z,25.33
2018-05-24T09:31:08.132Z,25.21
2018-05-24T09:32:08.120Z,25.24
2018-05-24T09:33:08.376Z,25.3
2018-05-24T09:34:08.143Z,25.28
2018-05-24T09:36:08.718Z,25.38
2018-05-24T09:37:07.906Z,25.32
2018-05-24T09:38:08.173Z,25.35
2018-05-24T09:39:08.434Z,25.39
2018-05-24T09:40:08.451Z,25.36
2018-05-24T09:41:08.155Z,25.42
2018-05-24T09:42:08.251Z,25.54
2018-05-24T09:43:08.396Z,25.55
2018-05-24T09:44:08.436Z,25.6
2018-05-24T09:45:20.889Z,25.6
2018-05-24T09:46:08.403Z,25.55
2018-05-24T09:47:08.436Z,25.58
2018-05-24T09:48:08.401Z,25.62
2018-05-24T09:49:07.917Z,25.55
2018-05-24T09:50:08.405Z,25.5
2018-05-24T09:51:07.939Z,25.58
2018-05-24T09:52:08.173Z,25.64
2018-05-24T09:53:08.426Z,25.65
2018-05-24T09:54:08.419Z,25.65
2018-05-24T09:55:08.485Z,25.6
2018-05-24T09:56:08.518Z,25.61
2018-05-24T09:57:08.191Z,25.58
2018-05-24T09:58:08.207Z,25.64
2018-05-24T09:59:08.223Z,25.6
2018-05-24T10:00:08.484Z,25.57
2018-05-24T10:01:07.949Z,25.55
2018-05-24T10:02:08.258Z,25.55
2018-05-24T10:03:08.471Z,25.55
2018-05-24T10:04:07.965Z,25.55
2018-05-24T10:05:08.475Z,25.64
2018-05-24T10:06:08.203Z,25.52
2018-05-24T10:07:08.475Z,25.54
2018-05-24T10:08:08.450Z,25.43
2018-05-24T10:09:08.476Z,25.27
2018-05-24T10:10:08.462Z,25.32
2018-05-24T10:11:08.229Z,25.21
2018-05-24T10:12:08.227Z,25.18
2018-05-24T10:13:08.468Z,25.3
2018-05-24T10:14:07.958Z,25.17
2018-05-24T10:15:20.945Z,25.21
2018-05-24T10:16:09.893Z,25.1
2018-05-24T10:17:08.469Z,25.13
2018-05-24T10:18:08.246Z,25.1
2018-05-24T10:19:08.499Z,25.15
2018-05-24T10:20:08.516Z,25.15
2018-05-24T10:21:08.222Z,25.24
2018-05-24T10:22:08.224Z,25.23
2018-05-24T10:23:08.509Z,25.36
2018-05-24T10:24:08.522Z,25.33
2018-05-24T10:25:08.488Z,25.35
2018-05-24T10:26:08.262Z,25.4
2018-05-24T10:27:07.986Z,25.39
2018-05-24T10:28:08.528Z,25.42
2018-05-24T10:29:08.249Z,25.5
2018-05-24T10:30:08.280Z,25.55
2018-05-24T10:31:08.244Z,25.57
2018-05-24T10:32:08.270Z,25.43
2018-05-24T10:33:08.253Z,25.51
2018-05-24T10:34:08.279Z,25.35
2018-05-24T10:35:08.280Z,25.39
2018-05-24T10:36:08.272Z,25.33
2018-05-24T10:37:08.533Z,25.38
2018-05-24T10:38:08.300Z,25.39
2018-05-24T10:39:08.544Z,25.38
2018-05-24T10:40:08.616Z,25.39
2018-05-24T10:41:08.572Z,25.32
2018-05-24T10:42:08.014Z,25.35
2018-05-24T10:43:08.554Z,25.3
2018-05-24T10:44:08.532Z,25.32
2018-05-24T10:45:08.314Z,25.32
2018-05-24T10:46:08.275Z,25.24
2018-05-24T10:47:08.305Z,25.2
2018-05-24T10:48:08.549Z,25.23
2018-05-24T10:49:08.639Z,25.21
2018-05-24T10:50:08.556Z,25.18
2018-05-24T10:51:08.757Z,25.08
2018-05-24T10:52:08.299Z,25.13
2018-05-24T10:53:08.292Z,25.15
2018-05-24T10:54:08.120Z,25.13
2018-05-24T10:55:08.570Z,25.21
2018-05-24T10:56:08.866Z,25.21
2018-05-24T10:57:08.604Z,25.2
2018-05-24T10:58:08.296Z,25.2
2018-05-24T10:59:08.577Z,25.23
2018-05-24T11:00:08.549Z,25.28
2018-05-24T11:01:08.330Z,25.25
2018-05-24T11:02:08.295Z,25.25
2018-05-24T11:03:08.845Z,25.18
2018-05-24T11:04:08.566Z,25.2
2018-05-24T11:05:08.609Z,25.3
2018-05-24T11:07:08.584Z,25.2
2018-05-24T11:08:08.317Z,25.2
2018-05-24T11:09:08.334Z,25.28
2018-05-24T11:10:08.335Z,25.32
2018-05-24T11:11:08.059Z,25.25
2018-05-24T11:12:08.575Z,25.25
2018-05-24T11:13:08.568Z,25.2
2018-05-24T11:14:08.340Z,25.14
2018-05-24T11:15:08.830Z,25.14
2018-05-24T11:16:08.358Z,25.2
2018-05-24T11:17:08.619Z,25.18
2018-05-24T11:18:08.572Z,25.3
2018-05-24T11:19:08.615Z,25.18
2018-05-24T11:20:08.591Z,25.25
2018-05-24T11:21:08.368Z,25.32
2018-05-24T11:22:08.643Z,25.21
2018-05-24T11:23:08.327Z,25.24
2018-05-24T11:24:08.596Z,25.23
2018-05-24T11:25:08.733Z,25.18
2018-05-24T11:26:08.393Z,25.21
2018-05-24T11:27:08.607Z,25.17
2018-05-24T11:28:08.613Z,25.23
2018-05-24T11:29:08.333Z,25.35
2018-05-24T11:30:08.631Z,25.25
2018-05-24T11:31:08.377Z,25.3
2018-05-24T11:32:08.971Z,25.2
2018-05-24T11:33:08.682Z,25.28
2018-05-24T11:34:08.390Z,25.36
2018-05-24T11:35:08.096Z,25.4
2018-05-24T11:36:08.870Z,25.3
2018-05-24T11:37:09.061Z,25.33
2018-05-24T11:38:08.638Z,25.43
2018-05-24T11:39:08.631Z,25.39
2018-05-24T11:40:08.359Z,25.46
2018-05-24T11:41:08.348Z,25.5
2018-05-24T11:42:08.630Z,25.5
2018-05-24T11:43:08.831Z,25.5
2018-05-24T11:44:08.648Z,25.47
2018-05-24T11:45:08.354Z,25.54
2018-05-24T11:46:08.924Z,25.52
2018-05-24T11:47:08.110Z,25.51
2018-05-24T11:48:08.409Z,25.57
2018-05-24T11:49:08.635Z,25.57
2018-05-24T11:50:08.664Z,25.46
2018-05-24T11:51:08.366Z,25.5
2018-05-24T11:52:08.802Z,25.45
2018-05-24T11:53:08.370Z,25.5
2018-05-24T11:54:08.722Z,25.47
2018-05-24T11:55:08.647Z,25.45
2018-05-24T11:56:08.638Z,25.39
2018-05-24T11:57:08.716Z,25.42
2018-05-24T11:58:08.420Z,25.38
2018-05-24T11:59:08.668Z,25.3
2018-05-24T12:00:08.646Z,25.28
2018-05-24T12:01:08.146Z,25.35
2018-05-24T12:02:08.649Z,25.39
2018-05-24T12:03:08.658Z,25.27
2018-05-24T12:04:08.639Z,25.33
2018-05-24T12:05:08.680Z,25.35
2018-05-24T12:06:08.390Z,25.35
2018-05-24T12:07:08.960Z,25.32
2018-05-24T12:08:08.653Z,25.33
2018-05-24T12:09:08.381Z,25.39
2018-05-24T12:10:08.675Z,25.38
2018-05-24T12:11:08.683Z,25.4
2018-05-24T12:12:08.418Z,25.38
2018-05-24T12:13:08.687Z,25.4
2018-05-24T12:14:08.640Z,25.42
2018-05-24T12:15:08.559Z,25.42
2018-05-24T12:16:08.903Z,25.5
2018-05-24T12:17:08.705Z,25.57
2018-05-24T12:18:08.728Z,25.57
2018-05-24T12:19:08.425Z,25.6
2018-05-24T12:20:08.649Z,25.67
2018-05-24T12:21:08.689Z,25.62
2018-05-24T12:22:08.662Z,25.7
2018-05-24T12:23:08.715Z,25.67
2018-05-24T12:24:08.704Z,25.73
2018-05-24T12:25:08.709Z,25.69
2018-05-24T12:26:08.661Z,25.67
2018-05-24T12:27:08.413Z,25.76
2018-05-24T12:28:08.706Z,25.77
2018-05-24T12:29:08.857Z,25.76
2018-05-24T12:30:08.696Z,25.87
2018-05-24T12:31:08.162Z,25.88
2018-05-24T12:32:08.680Z,25.83
2018-05-24T12:33:08.705Z,25.91
2018-05-24T12:34:08.412Z,25.87
2018-05-24T12:35:08.696Z,25.94
2018-05-24T12:36:08.421Z,25.94
2018-05-24T12:37:08.734Z,25.9
2018-05-24T12:38:08.165Z,25.85
2018-05-24T12:39:08.708Z,25.85
2018-05-24T12:40:08.445Z,25.91
2018-05-24T12:41:08.454Z,25.77
2018-05-24T12:42:08.728Z,25.75
2018-05-24T12:43:08.449Z,25.69
2018-05-24T12:44:08.717Z,25.72
2018-05-24T12:45:08.726Z,25.77
2018-05-24T12:46:08.467Z,25.79
2018-05-24T12:47:08.443Z,25.87
2018-05-24T12:48:08.723Z,25.91
2018-05-24T12:49:09.040Z,25.94
2018-05-24T12:50:08.728Z,26.01
2018-05-24T12:51:08.448Z,25.92
2018-05-24T12:52:08.791Z,25.88
2018-05-24T12:53:08.442Z,26.09
2018-05-24T12:54:08.740Z,25.97
2018-05-24T12:55:08.699Z,25.94
2018-05-24T12:56:08.727Z,26.01
2018-05-24T12:57:08.699Z,26.1
2018-05-24T12:58:08.750Z,26.12
2018-05-24T12:59:08.459Z,26.01
2018-05-24T13:00:08.728Z,26.05